createdAt,value
2023-05-12T00:00:59.383Z,0.30
2023-05-12T00:03:28.142Z,0.20
2023-05-12T00:06:00.552Z,0.10
2023-05-12T00:08:28.964Z,0.10
2023-05-12T00:10:57.444Z,0.10
2023-05-12T00:13:27.658Z,0.20
2023-05-12T00:15:56.980Z,0.10
2023-05-12T00:18:25.873Z,0.10
2023-05-12T00:20:56.093Z,0.10
2023-05-12T00:23:26.499Z,0.10
2023-05-12T00:26:27.774Z,0.00
2023-05-12T00:28:56.160Z,0.10
2023-05-12T00:31:24.515Z,0.10
2023-05-12T00:33:53.016Z,0.03
2023-05-12T00:36:21.456Z,0.10
2023-05-12T00:38:51.343Z,0.10
2023-05-12T00:41:19.877Z,0.10
2023-05-12T00:43:48.304Z,0.07
2023-05-12T00:46:16.974Z,0.00
2023-05-12T00:48:46.079Z,0.10
2023-05-12T00:51:15.888Z,0.10
2023-05-12T00:53:49.952Z,0.10
2023-05-12T00:56:22.257Z,0.10
2023-05-12T00:58:50.892Z,0.00
2023-05-12T01:01:19.441Z,0.00
2023-05-12T01:03:47.993Z,0.07
2023-05-12T01:06:23.868Z,0.10
2023-05-12T01:08:52.528Z,0.10
2023-05-12T01:11:22.869Z,0.10
2023-05-12T01:13:51.191Z,0.00
2023-05-12T01:16:24.348Z,0.10
2023-05-12T01:18:55.802Z,0.00
2023-05-12T01:21:24.062Z,0.00
2023-05-12T01:24:04.262Z,0.10
2023-05-12T01:26:34.019Z,0.10
2023-05-12T01:29:03.847Z,0.00
2023-05-12T01:31:33.025Z,0.00
2023-05-12T01:34:01.184Z,0.07
2023-05-12T01:36:29.340Z,0.00
2023-05-12T01:38:57.507Z,0.10
2023-05-12T01:41:25.613Z,0.00
2023-05-12T01:43:55.185Z,0.00
2023-05-12T01:46:23.447Z,0.00
2023-05-12T01:48:51.631Z,0.00
2023-05-12T01:51:19.864Z,0.00
2023-05-12T01:53:48.004Z,0.00
2023-05-12T01:56:16.213Z,0.00
2023-05-12T01:58:44.450Z,0.10
2023-05-12T02:01:14.625Z,0.00
2023-05-12T02:03:43.083Z,0.00
2023-05-12T02:06:11.298Z,0.00
2023-05-12T02:08:39.460Z,0.00
2023-05-12T02:11:08.338Z,0.10
2023-05-12T02:13:37.031Z,0.00
2023-05-12T02:16:05.766Z,0.00
2023-05-12T02:18:35.376Z,0.10
2023-05-12T02:21:03.728Z,0.10
2023-05-12T02:23:31.976Z,0.10
2023-05-12T02:26:00.197Z,0.07
2023-05-12T02:28:28.388Z,0.00
2023-05-12T02:30:57.101Z,0.07
2023-05-12T02:33:25.285Z,0.10
2023-05-12T02:35:54.885Z,0.00
2023-05-12T02:38:23.599Z,0.00
2023-05-12T02:40:51.741Z,0.10
2023-05-12T02:43:20.033Z,0.03
2023-05-12T02:45:48.381Z,0.10
2023-05-12T02:48:16.943Z,0.10
2023-05-12T02:50:45.077Z,0.00
2023-05-12T02:53:14.661Z,0.00
2023-05-12T02:55:42.742Z,0.10
2023-05-12T02:58:11.127Z,0.00
2023-05-12T03:00:39.397Z,0.10
2023-05-12T03:03:08.043Z,0.00
2023-05-12T03:05:36.413Z,0.10
2023-05-12T03:08:04.729Z,0.10
2023-05-12T03:10:34.427Z,0.10
2023-05-12T03:13:02.782Z,0.10
2023-05-12T03:15:31.049Z,0.10
2023-05-12T03:17:59.336Z,0.10
2023-05-12T03:20:27.538Z,0.00
2023-05-12T03:22:55.903Z,0.10
2023-05-12T03:25:24.162Z,0.10
2023-05-12T03:27:53.825Z,0.10
2023-05-12T03:30:22.178Z,0.17
2023-05-12T03:32:50.454Z,0.13
2023-05-12T03:35:18.735Z,0.10
2023-05-12T03:37:47.002Z,0.20
2023-05-12T03:40:18.973Z,0.10
2023-05-12T03:42:47.449Z,0.10
2023-05-12T03:45:17.048Z,0.10
2023-05-12T03:47:45.314Z,0.10
2023-05-12T03:50:13.678Z,0.10
2023-05-12T03:52:42.434Z,0.20
2023-05-12T03:55:11.024Z,0.10
2023-05-12T03:57:39.248Z,0.20
2023-05-12T04:00:08.478Z,0.30
2023-05-12T04:02:38.298Z,0.20
2023-05-12T04:05:08.369Z,0.20
2023-05-12T04:07:36.979Z,0.20
2023-05-12T04:10:05.912Z,0.20
2023-05-12T04:12:34.563Z,0.10
2023-05-12T04:15:03.292Z,0.20
2023-05-12T04:17:31.537Z,0.20
2023-05-12T04:20:01.372Z,0.20
2023-05-12T04:22:29.514Z,0.40
2023-05-12T04:24:57.695Z,0.20
2023-05-12T04:27:25.895Z,0.20
2023-05-12T04:29:54.066Z,0.20
2023-05-12T04:32:22.296Z,0.20
2023-05-12T04:34:51.687Z,0.27
2023-05-12T04:37:22.398Z,0.20
2023-05-12T04:39:50.630Z,0.30
2023-05-12T04:42:18.855Z,0.23
2023-05-12T04:44:47.303Z,0.30
2023-05-12T04:47:15.590Z,0.23
2023-05-12T04:49:43.794Z,0.27
2023-05-12T04:52:12.078Z,0.20
2023-05-12T04:54:41.655Z,0.30
2023-05-12T04:57:09.817Z,0.20
2023-05-12T04:59:39.917Z,0.33
2023-05-12T05:02:09.332Z,0.40
2023-05-12T05:04:42.534Z,0.50
2023-05-12T05:07:10.875Z,0.40
2023-05-12T05:09:39.231Z,0.50
2023-05-12T05:12:10.004Z,0.40
2023-05-12T05:14:39.180Z,0.40
2023-05-12T05:17:08.112Z,0.50
2023-05-12T05:19:49.958Z,0.20
2023-05-12T05:22:22.855Z,0.30
2023-05-12T05:24:51.073Z,0.13
2023-05-12T05:27:20.801Z,0.10
2023-05-12T05:29:49.538Z,0.20
2023-05-12T05:32:18.381Z,0.13
2023-05-12T05:34:46.796Z,0.20
2023-05-12T05:37:15.025Z,0.10
2023-05-12T05:39:43.231Z,0.10
2023-05-12T05:42:11.439Z,0.17
2023-05-12T05:44:41.342Z,0.30
2023-05-12T05:47:09.596Z,0.20
2023-05-12T05:49:37.839Z,0.20
2023-05-12T05:52:06.420Z,0.20
2023-05-12T05:54:34.564Z,0.20
2023-05-12T05:57:03.672Z,0.10
2023-05-12T05:59:32.397Z,0.10
2023-05-12T06:02:02.085Z,0.10
2023-05-12T06:04:30.590Z,0.10
2023-05-12T06:06:58.869Z,0.20
2023-05-12T06:09:26.984Z,0.20
2023-05-12T06:11:55.160Z,0.10
2023-05-12T06:14:23.448Z,0.10
2023-05-12T06:16:51.938Z,0.10
2023-05-12T06:19:21.758Z,0.10
2023-05-12T06:21:49.972Z,0.10
2023-05-12T06:24:18.173Z,0.20
2023-05-12T06:26:46.412Z,0.10
2023-05-12T06:29:15.338Z,0.20
2023-05-12T06:31:43.608Z,0.10
2023-05-12T06:34:12.988Z,0.20
2023-05-12T06:36:42.564Z,0.10
2023-05-12T06:39:10.889Z,0.20
2023-05-12T06:41:39.112Z,0.10
2023-05-12T06:44:12.378Z,0.10
2023-05-12T06:46:40.867Z,0.10
2023-05-12T06:49:09.440Z,0.20
2023-05-12T06:51:37.592Z,0.10
2023-05-12T06:54:07.578Z,0.10
2023-05-12T06:56:35.814Z,0.10
2023-05-12T06:59:04.517Z,0.20
2023-05-12T07:01:33.505Z,0.10
2023-05-12T07:04:01.772Z,0.20
2023-05-12T07:06:30.054Z,0.10
2023-05-12T07:08:58.649Z,0.20
2023-05-12T07:11:28.802Z,0.10
2023-05-12T07:13:57.058Z,0.03
2023-05-12T07:16:25.365Z,0.07
2023-05-12T07:18:53.644Z,0.10
2023-05-12T07:21:22.046Z,0.03
2023-05-12T07:23:50.393Z,0.10
2023-05-12T07:26:18.823Z,0.10
2023-05-12T07:28:48.388Z,0.10
2023-05-12T07:31:17.071Z,0.10
2023-05-12T07:33:45.357Z,0.10
2023-05-12T07:36:13.557Z,0.10
2023-05-12T07:38:44.466Z,0.10
2023-05-12T07:41:12.755Z,0.10
2023-05-12T07:43:41.109Z,0.10
2023-05-12T07:46:10.721Z,0.10
2023-05-12T07:48:40.447Z,0.10
2023-05-12T07:51:09.628Z,0.10
2023-05-12T07:53:37.833Z,0.20
2023-05-12T07:56:07.388Z,0.10
2023-05-12T07:58:35.652Z,0.10
2023-05-12T08:01:06.210Z,0.10
2023-05-12T08:03:36.689Z,0.10
2023-05-12T08:06:06.044Z,0.00
2023-05-12T08:08:34.335Z,0.30
2023-05-12T08:11:02.480Z,0.00
2023-05-12T08:13:30.711Z,0.10
2023-05-12T08:15:58.851Z,0.10
2023-05-12T08:18:27.167Z,0.00
2023-05-12T08:20:56.909Z,0.00
2023-05-12T08:23:25.108Z,0.10
2023-05-12T08:25:53.328Z,0.10
2023-05-12T08:28:21.534Z,0.03
2023-05-12T08:30:49.840Z,0.00
2023-05-12T08:33:18.379Z,0.00
2023-05-12T08:35:46.802Z,0.00
2023-05-12T08:38:16.728Z,0.00
2023-05-12T08:40:55.307Z,0.07
2023-05-12T08:43:26.413Z,0.00
2023-05-12T08:45:57.728Z,0.10
2023-05-12T08:48:28.517Z,0.10
2023-05-12T08:50:57.258Z,0.00
2023-05-12T08:53:29.228Z,0.00
2023-05-12T08:57:09.723Z,0.00
2023-05-12T08:58:47.432Z,0.00
2023-05-12T09:01:17.579Z,0.10
2023-05-12T09:03:45.952Z,0.00
2023-05-12T09:06:15.408Z,0.00
2023-05-12T09:08:46.655Z,0.00
2023-05-12T09:11:15.467Z,0.10
2023-05-12T09:13:51.145Z,0.10
2023-05-12T09:16:26.501Z,0.00
2023-05-12T09:18:59.160Z,0.10
2023-05-12T09:21:28.009Z,0.10
2023-05-12T09:24:05.951Z,0.10
2023-05-12T09:26:46.665Z,0.10
2023-05-12T09:29:23.957Z,0.10
2023-05-12T09:31:58.795Z,0.10
2023-05-12T09:34:29.778Z,0.00
2023-05-12T09:36:58.771Z,0.10
2023-05-12T09:39:29.083Z,0.10
2023-05-12T09:41:57.653Z,0.17
2023-05-12T09:44:29.112Z,0.10
2023-05-12T09:46:57.423Z,0.10
2023-05-12T09:49:27.173Z,0.20
2023-05-12T09:51:57.150Z,0.10
2023-05-12T09:54:30.424Z,0.10
2023-05-12T09:57:00.790Z,0.00
2023-05-12T09:59:32.852Z,0.10
2023-05-12T10:02:02.569Z,0.10
2023-05-12T10:04:37.258Z,0.00
2023-05-12T10:07:05.822Z,0.10
2023-05-12T10:09:41.908Z,0.00
2023-05-12T10:12:11.053Z,0.10
2023-05-12T10:14:39.941Z,0.00
2023-05-12T10:17:09.161Z,0.03
2023-05-12T10:19:38.929Z,0.10
2023-05-12T10:22:10.986Z,0.00
2023-05-12T10:24:42.202Z,0.10
2023-05-12T10:27:12.022Z,0.00
2023-05-12T10:29:40.776Z,0.00
2023-05-12T10:32:09.234Z,0.10
2023-05-12T10:34:38.905Z,0.10
2023-05-12T10:37:09.264Z,0.10
2023-05-12T10:39:38.220Z,0.10
2023-05-12T10:42:09.944Z,0.00
2023-05-12T10:44:49.018Z,0.10
2023-05-12T10:47:17.507Z,0.10
2023-05-12T10:49:46.503Z,0.10
2023-05-12T10:52:15.205Z,0.10
2023-05-12T10:54:45.809Z,0.00
2023-05-12T10:57:18.616Z,0.10
2023-05-12T10:59:52.087Z,0.10
2023-05-12T11:02:27.532Z,0.10
2023-05-12T11:04:59.152Z,0.00
2023-05-12T11:07:30.630Z,0.10
2023-05-12T11:10:02.135Z,0.10
2023-05-12T11:12:34.083Z,0.00
2023-05-12T11:15:03.551Z,0.17
2023-05-12T11:17:32.620Z,0.10
2023-05-12T11:20:01.877Z,0.03
2023-05-12T11:22:30.320Z,0.10
2023-05-12T11:24:58.724Z,0.10
2023-05-12T11:27:26.912Z,0.10
2023-05-12T11:30:00.264Z,0.20
2023-05-12T11:32:29.862Z,0.10
2023-05-12T11:35:12.734Z,0.10
2023-05-12T11:37:47.325Z,0.20
2023-05-12T11:40:17.270Z,0.10
2023-05-12T11:42:48.888Z,0.10
2023-05-12T11:45:27.677Z,0.10
2023-05-12T11:48:07.849Z,0.00
2023-05-12T11:50:39.248Z,0.20
2023-05-12T11:53:12.408Z,0.20
2023-05-12T11:55:49.158Z,0.10
2023-05-12T11:58:21.868Z,0.10
2023-05-12T12:00:51.771Z,0.10
2023-05-12T12:03:20.557Z,0.10
2023-05-12T12:06:00.113Z,0.20
2023-05-12T12:08:28.560Z,0.10
2023-05-12T12:10:57.054Z,0.03
2023-05-12T12:13:26.600Z,0.07
2023-05-12T12:15:56.499Z,0.10
2023-05-12T12:18:25.195Z,0.10
2023-05-12T12:20:53.434Z,0.07
2023-05-12T12:23:21.641Z,0.10
2023-05-12T12:25:49.879Z,0.00
2023-05-12T12:28:18.061Z,0.00
2023-05-12T12:30:46.624Z,0.10
2023-05-12T12:33:16.927Z,0.00
2023-05-12T12:35:47.951Z,0.10
2023-05-12T12:38:16.574Z,0.10
2023-05-12T12:40:44.788Z,0.10
2023-05-12T12:43:13.046Z,0.10
2023-05-12T12:45:41.228Z,0.10
2023-05-12T12:48:09.446Z,0.10
2023-05-12T12:50:39.526Z,0.10
2023-05-12T12:53:07.838Z,0.10
2023-05-12T12:55:36.012Z,0.10
2023-05-12T12:58:04.163Z,0.20
2023-05-12T13:00:32.317Z,0.10
2023-05-12T13:03:01.411Z,0.20
2023-05-12T13:05:29.686Z,0.20
2023-05-12T13:07:59.199Z,0.10
2023-05-12T13:10:27.683Z,0.20
2023-05-12T13:12:56.044Z,0.10
2023-05-12T13:15:24.440Z,0.10
2023-05-12T13:17:53.058Z,0.20
2023-05-12T13:20:21.647Z,0.40
2023-05-12T13:22:49.980Z,0.10
2023-05-12T13:25:19.943Z,0.30
2023-05-12T13:27:48.254Z,0.20
2023-05-12T13:30:16.811Z,0.23
2023-05-12T13:32:45.113Z,0.30
2023-05-12T13:35:13.376Z,0.20
2023-05-12T13:37:41.610Z,0.20
2023-05-12T13:40:10.943Z,0.30
2023-05-12T13:42:40.526Z,0.27
2023-05-12T13:45:10.648Z,0.20
2023-05-12T13:47:38.950Z,0.10
2023-05-12T13:50:08.637Z,0.10
2023-05-12T13:52:37.094Z,0.20
2023-05-12T13:55:05.710Z,0.10
2023-05-12T13:57:33.917Z,0.10
2023-05-12T14:00:04.239Z,0.20
2023-05-12T14:02:32.388Z,0.20
2023-05-12T14:05:00.672Z,0.10
2023-05-12T14:07:29.377Z,0.10
2023-05-12T14:09:57.857Z,0.20
2023-05-12T14:12:26.200Z,0.20
2023-05-12T14:14:58.093Z,0.20
2023-05-12T14:17:31.883Z,0.20
2023-05-12T14:20:00.079Z,0.30
2023-05-12T14:22:28.327Z,0.20
2023-05-12T14:24:56.927Z,0.10
2023-05-12T14:27:25.359Z,0.20
2023-05-12T14:29:53.598Z,0.20
2023-05-12T14:32:21.884Z,0.20
2023-05-12T14:34:51.501Z,0.27
2023-05-12T14:37:19.622Z,0.20
2023-05-12T14:39:47.838Z,0.20
2023-05-12T14:42:16.072Z,0.30
2023-05-12T14:44:44.286Z,0.30
2023-05-12T14:47:12.614Z,0.30
2023-05-12T14:49:41.275Z,0.30
2023-05-12T14:52:11.642Z,0.20
2023-05-12T14:54:39.856Z,0.20
2023-05-12T14:57:08.415Z,0.30
2023-05-12T14:59:36.619Z,0.23
2023-05-12T15:02:04.871Z,0.40
2023-05-12T15:04:33.206Z,0.30
2023-05-12T15:07:01.439Z,0.40
2023-05-12T15:09:31.065Z,0.30
2023-05-12T15:11:59.237Z,0.40
2023-05-12T15:14:27.452Z,0.30
2023-05-12T15:16:55.692Z,0.30
2023-05-12T15:19:23.928Z,0.30
2023-05-12T15:21:52.172Z,0.13
2023-05-12T15:24:20.360Z,0.30
2023-05-12T15:26:49.976Z,0.20
2023-05-12T15:29:18.172Z,0.20
2023-05-12T15:31:46.476Z,0.30
2023-05-12T15:34:14.825Z,0.10
2023-05-12T15:36:45.893Z,0.10
2023-05-12T15:39:14.142Z,0.30
2023-05-12T15:41:42.353Z,0.20
2023-05-12T15:44:12.009Z,0.30
2023-05-12T15:46:40.299Z,0.10
2023-05-12T15:49:08.808Z,0.20
2023-05-12T15:51:37.634Z,0.20
2023-05-12T15:54:07.847Z,0.20
2023-05-12T15:56:37.745Z,0.20
2023-05-12T15:59:07.561Z,0.20
2023-05-12T16:01:37.399Z,0.10
2023-05-12T16:04:05.647Z,0.10
2023-05-12T16:06:34.091Z,0.10
2023-05-12T16:09:02.450Z,0.10
2023-05-12T16:11:30.625Z,0.20
2023-05-12T16:13:59.731Z,0.10
2023-05-12T16:16:27.995Z,0.20
2023-05-12T16:18:57.992Z,0.10
2023-05-12T16:21:26.351Z,0.30
2023-05-12T16:23:54.577Z,0.20
2023-05-12T16:26:23.809Z,0.10
2023-05-12T16:28:52.177Z,0.30
2023-05-12T16:31:20.373Z,0.20
2023-05-12T16:33:48.538Z,0.20
2023-05-12T16:36:19.654Z,0.20
2023-05-12T16:38:48.345Z,0.10
2023-05-12T16:41:16.749Z,0.10
2023-05-12T16:43:45.099Z,0.20
2023-05-12T16:46:13.575Z,0.20
2023-05-12T16:48:41.727Z,0.20
2023-05-12T16:51:11.559Z,0.10
2023-05-12T16:53:41.408Z,0.20
2023-05-12T16:56:09.991Z,0.17
2023-05-12T16:58:38.341Z,0.30
2023-05-12T17:01:06.771Z,0.10
2023-05-12T17:03:35.207Z,0.20
2023-05-12T17:06:04.140Z,0.30
2023-05-12T17:08:35.593Z,0.30
2023-05-12T17:11:06.381Z,0.17
2023-05-12T17:13:37.386Z,0.20
2023-05-12T17:16:06.078Z,0.20
2023-05-12T17:19:13.615Z,0.40
2023-05-12T17:21:22.537Z,0.37
2023-05-12T17:23:50.817Z,0.20
2023-05-12T17:26:21.125Z,0.20
2023-05-12T17:28:49.470Z,0.23
2023-05-12T17:31:17.749Z,0.30
2023-05-12T17:33:45.982Z,0.30
2023-05-12T17:36:14.657Z,0.30
2023-05-12T17:38:43.603Z,0.30
2023-05-12T17:41:11.917Z,0.27
2023-05-12T17:43:41.588Z,0.20
2023-05-12T17:46:09.848Z,0.20
2023-05-12T17:48:38.892Z,0.30
2023-05-12T17:51:07.837Z,0.30
2023-05-12T17:53:36.244Z,0.10
2023-05-12T17:56:04.631Z,0.20
2023-05-12T17:58:32.854Z,0.20
2023-05-12T18:01:03.527Z,0.20
2023-05-12T18:03:31.862Z,0.20
2023-05-12T18:06:00.259Z,0.30
2023-05-12T18:08:28.493Z,0.20
2023-05-12T18:10:56.764Z,0.30
2023-05-12T18:13:25.145Z,0.20
2023-05-12T18:15:53.360Z,0.50
2023-05-12T18:18:23.141Z,0.30
2023-05-12T18:20:51.392Z,0.30
2023-05-12T18:23:19.563Z,0.30
2023-05-12T18:25:47.787Z,0.33
2023-05-12T18:28:15.972Z,0.30
2023-05-12T18:30:44.327Z,0.40
2023-05-12T18:33:12.644Z,0.40
2023-05-12T18:35:42.407Z,0.37
2023-05-12T18:38:10.626Z,0.20
2023-05-12T18:40:39.655Z,0.30
2023-05-12T18:43:07.942Z,0.30
2023-05-12T18:45:36.241Z,0.30
2023-05-12T18:48:04.477Z,0.30
2023-05-12T18:50:32.669Z,0.30
2023-05-12T18:53:02.345Z,0.40
2023-05-12T18:55:30.520Z,0.40
2023-05-12T18:57:58.766Z,0.30
2023-05-12T19:00:31.936Z,0.40
2023-05-12T19:03:00.427Z,0.30
2023-05-12T19:05:28.934Z,0.30
2023-05-12T19:07:57.192Z,0.30
2023-05-12T19:10:27.628Z,0.33
2023-05-12T19:12:55.872Z,0.20
2023-05-12T19:15:24.091Z,0.30
2023-05-12T19:17:52.386Z,0.30
2023-05-12T19:20:20.686Z,0.40
2023-05-12T19:22:50.234Z,0.20
2023-05-12T19:25:18.628Z,0.20
2023-05-12T19:27:48.507Z,0.30
2023-05-12T19:30:16.892Z,0.20
2023-05-12T19:32:46.255Z,0.20
2023-05-12T19:35:16.776Z,0.20
2023-05-12T19:37:45.303Z,0.30
2023-05-12T19:40:13.993Z,0.20
2023-05-12T19:42:42.645Z,0.30
2023-05-12T19:45:12.920Z,0.30
2023-05-12T19:47:41.700Z,0.20
2023-05-12T19:50:11.543Z,0.23
2023-05-12T19:52:39.833Z,0.20
2023-05-12T19:55:09.339Z,0.20
2023-05-12T19:57:38.358Z,0.30
2023-05-12T20:00:08.268Z,0.30
2023-05-12T20:02:38.250Z,0.30
2023-05-12T20:05:07.182Z,0.30
2023-05-12T20:07:35.416Z,0.30
2023-05-12T20:10:03.844Z,0.43
2023-05-12T20:12:32.012Z,0.30
2023-05-12T20:15:00.205Z,0.20
2023-05-12T20:17:28.447Z,0.20
2023-05-12T20:19:58.565Z,0.30
2023-05-12T20:22:26.870Z,0.20
2023-05-12T20:24:55.054Z,0.33
2023-05-12T20:27:23.221Z,0.40
2023-05-12T20:29:51.804Z,0.60
2023-05-12T20:32:19.948Z,0.50
2023-05-12T20:34:48.126Z,0.50
2023-05-12T20:37:18.378Z,0.40
2023-05-12T20:39:46.606Z,0.53
2023-05-12T20:42:14.814Z,0.43
2023-05-12T20:44:43.187Z,0.60
2023-05-12T20:47:11.398Z,0.40
2023-05-12T20:49:39.585Z,0.30
2023-05-12T20:52:08.396Z,0.63
2023-05-12T20:54:38.653Z,0.40
2023-05-12T20:57:07.286Z,0.30
2023-05-12T20:59:35.516Z,0.30
2023-05-12T21:02:03.769Z,0.20
2023-05-12T21:04:31.965Z,0.30
2023-05-12T21:07:00.203Z,0.27
2023-05-12T21:09:28.745Z,0.23
2023-05-12T21:11:58.686Z,0.30
2023-05-12T21:14:26.858Z,0.40
2023-05-12T21:16:55.193Z,0.30
2023-05-12T21:19:23.381Z,0.30
2023-05-12T21:21:51.595Z,0.30
2023-05-12T21:24:19.873Z,0.53
2023-05-12T21:26:48.154Z,0.80
2023-05-12T21:29:17.866Z,0.60
2023-05-12T21:31:47.522Z,0.53
2023-05-12T21:34:15.871Z,0.50
2023-05-12T21:36:44.025Z,0.47
2023-05-12T21:39:12.219Z,0.50
2023-05-12T21:41:40.662Z,0.57
2023-05-12T21:44:11.098Z,0.40
2023-05-12T21:46:41.056Z,0.63
2023-05-12T21:49:09.295Z,0.67
2023-05-12T21:51:37.525Z,0.30
2023-05-12T21:54:05.791Z,0.67
2023-05-12T21:56:34.450Z,0.50
2023-05-12T21:59:02.804Z,0.90
2023-05-12T22:01:31.116Z,0.60
2023-05-12T22:04:00.988Z,0.53
2023-05-12T22:06:29.187Z,0.40
2023-05-12T22:08:57.450Z,0.60
2023-05-12T22:11:25.655Z,0.47
2023-05-12T22:13:53.787Z,0.50
2023-05-12T22:16:28.503Z,0.50
2023-05-12T22:19:04.570Z,0.60
2023-05-12T22:21:32.970Z,0.53
2023-05-12T22:24:01.118Z,0.60
2023-05-12T22:26:29.284Z,0.40
2023-05-12T22:28:57.515Z,0.87
2023-05-12T22:31:25.734Z,0.30
2023-05-12T22:33:53.970Z,0.43
2023-05-12T22:36:23.617Z,0.70
2023-05-12T22:38:51.746Z,0.60
2023-05-12T22:41:20.078Z,0.43
2023-05-12T22:43:48.216Z,0.47
2023-05-12T22:46:16.385Z,0.90
2023-05-12T22:48:44.650Z,0.50
2023-05-12T22:51:12.868Z,0.70
2023-05-12T22:53:42.467Z,0.80
2023-05-12T22:56:10.625Z,0.57
2023-05-12T22:58:38.784Z,0.60
2023-05-12T23:01:07.297Z,0.70
2023-05-12T23:03:35.563Z,0.80
2023-05-12T23:06:03.759Z,0.70
2023-05-12T23:08:31.909Z,0.60
2023-05-12T23:11:01.607Z,0.60
2023-05-12T23:13:30.946Z,0.60
2023-05-12T23:15:59.368Z,0.53
2023-05-12T23:18:27.634Z,0.77
2023-05-12T23:20:55.856Z,0.70
2023-05-12T23:23:24.072Z,0.50
2023-05-12T23:25:52.219Z,0.50
2023-05-12T23:28:21.972Z,0.40
2023-05-12T23:30:50.169Z,0.67
2023-05-12T23:33:18.570Z,0.60
2023-05-12T23:35:46.863Z,0.40
2023-05-12T23:38:15.011Z,0.63
2023-05-12T23:40:43.188Z,0.53
2023-05-12T23:43:11.670Z,0.60
2023-05-12T23:45:41.388Z,0.47
2023-05-12T23:48:09.603Z,0.57
2023-05-12T23:50:37.809Z,0.47
2023-05-12T23:53:06.033Z,0.40
2023-05-12T23:55:34.239Z,0.50
2023-05-12T23:58:02.465Z,0.30
